sensor_id;sensor_type;location;lat;lon;timestamp;P1;durP1;ratioP1;P2;durP2;ratioP2
61739;SDS011;47645;45.288;12.038;2022-09-09T00:04:10;5.5;;;2.4;;
61739;SDS011;47645;45.288;12.038;2022-09-09T00:14:10;9.2;;;3.5;;
61739;SDS011;47645;45.288;12.038;2022-09-09T00:24:09;8.1;;;3.5;;
61739;SDS011;47645;45.288;12.038;2022-09-09T00:34:12;9.2;;;3.5;;
61739;SDS011;47645;45.288;12.038;2022-09-09T00:44:15;9.3;;;3.4;;
61739;SDS011;47645;45.288;12.038;2022-09-09T00:54:17;6.8;;;3.1;;
61739;SDS011;47645;45.288;12.038;2022-09-09T01:04:16;7.4;;;3.8;;
61739;SDS011;47645;45.288;12.038;2022-09-09T01:14:19;6.2;;;3.1;;
61739;SDS011;47645;45.288;12.038;2022-09-09T01:24:19;8.0;;;4.0;;
61739;SDS011;47645;45.288;12.038;2022-09-09T01:34:17;8.9;;;4.9;;
61739;SDS011;47645;45.288;12.038;2022-09-09T01:44:19;9.3;;;4.7;;
61739;SDS011;47645;45.288;12.038;2022-09-09T01:54:19;9.5;;;5.1;;
61739;SDS011;47645;45.288;12.038;2022-09-09T02:04:24;9.5;;;5.3;;
61739;SDS011;47645;45.288;12.038;2022-09-09T02:14:23;9.2;;;5.3;;
61739;SDS011;47645;45.288;12.038;2022-09-09T02:24:23;10.2;;;5.0;;
61739;SDS011;47645;45.288;12.038;2022-09-09T02:34:24;10.5;;;4.3;;
61739;SDS011;47645;45.288;12.038;2022-09-09T02:44:26;7.0;;;4.0;;
61739;SDS011;47645;45.288;12.038;2022-09-09T02:54:28;5.7;;;3.6;;
61739;SDS011;47645;45.288;12.038;2022-09-09T03:04:28;6.4;;;3.2;;
61739;SDS011;47645;45.288;12.038;2022-09-09T03:14:30;6.5;;;2.8;;
61739;SDS011;47645;45.288;12.038;2022-09-09T03:24:30;6.4;;;3.1;;
61739;SDS011;47645;45.288;12.038;2022-09-09T03:34:31;8.1;;;3.2;;
61739;SDS011;47645;45.288;12.038;2022-09-09T03:44:33;8.9;;;3.8;;
61739;SDS011;47645;45.288;12.038;2022-09-09T03:54:34;6.5;;;3.9;;
61739;SDS011;47645;45.288;12.038;2022-09-09T04:04:35;8.7;;;3.8;;
61739;SDS011;47645;45.288;12.038;2022-09-09T04:14:36;6.6;;;3.4;;
61739;SDS011;47645;45.288;12.038;2022-09-09T04:24:37;6.6;;;3.2;;
61739;SDS011;47645;45.288;12.038;2022-09-09T04:34:38;8.7;;;3.1;;
61739;SDS011;47645;45.288;12.038;2022-09-09T04:44:41;5.9;;;2.8;;
61739;SDS011;47645;45.288;12.038;2022-09-09T04:54:41;5.6;;;2.7;;
61739;SDS011;47645;45.288;12.038;2022-09-09T05:04:42;7.8;;;3.2;;
61739;SDS011;47645;45.288;12.038;2022-09-09T05:14:44;7.7;;;2.9;;
61739;SDS011;47645;45.288;12.038;2022-09-09T05:24:44;7.1;;;3.0;;
61739;SDS011;47645;45.288;12.038;2022-09-09T05:34:46;7.7;;;3.6;;
61739;SDS011;47645;45.288;12.038;2022-09-09T05:44:47;8.6;;;4.1;;
61739;SDS011;47645;45.288;12.038;2022-09-09T05:54:48;9.2;;;4.1;;
61739;SDS011;47645;45.288;12.038;2022-09-09T06:04:49;10.5;;;4.4;;
61739;SDS011;47645;45.288;12.038;2022-09-09T06:14:52;16.4;;;5.0;;
61739;SDS011;47645;45.288;12.038;2022-09-09T06:24:53;11.1;;;4.9;;
61739;SDS011;47645;45.288;12.038;2022-09-09T06:34:53;11.1;;;4.8;;
61739;SDS011;47645;45.288;12.038;2022-09-09T06:44:54;13.9;;;5.1;;
61739;SDS011;47645;45.288;12.038;2022-09-09T06:54:55;11.0;;;4.8;;
61739;SDS011;47645;45.288;12.038;2022-09-09T07:04:58;9.8;;;4.3;;
61739;SDS011;47645;45.288;12.038;2022-09-09T07:14:58;9.1;;;4.3;;
61739;SDS011;47645;45.288;12.038;2022-09-09T07:24:59;12.0;;;4.8;;
61739;SDS011;47645;45.288;12.038;2022-09-09T07:35:00;13.9;;;4.9;;
61739;SDS011;47645;45.288;12.038;2022-09-09T07:45:01;16.0;;;4.5;;
61739;SDS011;47645;45.288;12.038;2022-09-09T07:55:03;12.0;;;3.8;;
61739;SDS011;47645;45.288;12.038;2022-09-09T08:00:04;14.2;;;3.7;;
61739;SDS011;47645;45.288;12.038;2022-09-09T08:10:07;10.6;;;3.7;;
61739;SDS011;47645;45.288;12.038;2022-09-09T08:20:08;14.2;;;3.9;;
61739;SDS011;47645;45.288;12.038;2022-09-09T08:30:08;13.3;;;4.7;;
61739;SDS011;47645;45.288;12.038;2022-09-09T08:40:10;8.7;;;3.0;;
61739;SDS011;47645;45.288;12.038;2022-09-09T08:50:16;7.8;;;2.6;;
61739;SDS011;47645;45.288;12.038;2022-09-09T09:00:12;8.4;;;2.3;;
61739;SDS011;47645;45.288;12.038;2022-09-09T09:10:15;8.3;;;2.5;;
61739;SDS011;47645;45.288;12.038;2022-09-09T09:20:16;5.5;;;2.0;;
61739;SDS011;47645;45.288;12.038;2022-09-09T09:30:17;6.4;;;1.8;;
61739;SDS011;47645;45.288;12.038;2022-09-09T09:40:17;6.2;;;1.8;;
61739;SDS011;47645;45.288;12.038;2022-09-09T09:50:18;5.2;;;1.2;;
61739;SDS011;47645;45.288;12.038;2022-09-09T10:00:20;5.2;;;1.4;;
61739;SDS011;47645;45.288;12.038;2022-09-09T10:10:21;6.5;;;1.5;;
61739;SDS011;47645;45.288;12.038;2022-09-09T10:20:27;8.3;;;1.8;;
61739;SDS011;47645;45.288;12.038;2022-09-09T10:30:25;13.9;;;2.9;;
61739;SDS011;47645;45.288;12.038;2022-09-09T10:40:28;8.6;;;2.3;;
61739;SDS011;47645;45.288;12.038;2022-09-09T10:50:40;6.6;;;1.9;;
61739;SDS011;47645;45.288;12.038;2022-09-09T11:00:30;9.3;;;2.6;;
61739;SDS011;47645;45.288;12.038;2022-09-09T11:10:33;6.0;;;2.2;;
61739;SDS011;47645;45.288;12.038;2022-09-09T11:20:33;4.2;;;1.7;;
61739;SDS011;47645;45.288;12.038;2022-09-09T11:30:33;5.3;;;2.2;;
61739;SDS011;47645;45.288;12.038;2022-09-09T11:40:35;5.7;;;2.2;;
61739;SDS011;47645;45.288;12.038;2022-09-09T11:50:36;5.1;;;2.0;;
61739;SDS011;47645;45.288;12.038;2022-09-09T12:00:38;3.9;;;1.7;;
61739;SDS011;47645;45.288;12.038;2022-09-09T12:10:38;3.8;;;1.5;;
61739;SDS011;47645;45.288;12.038;2022-09-09T12:20:40;6.0;;;1.3;;
61739;SDS011;47645;45.288;12.038;2022-09-09T12:30:42;4.8;;;1.3;;
61739;SDS011;47645;45.288;12.038;2022-09-09T12:40:43;8.1;;;2.0;;
61739;SDS011;47645;45.288;12.038;2022-09-09T12:50:51;7.2;;;1.6;;
61739;SDS011;47645;45.288;12.038;2022-09-09T13:00:50;6.2;;;1.4;;
61739;SDS011;47645;45.288;12.038;2022-09-09T13:10:49;7.6;;;2.0;;
61739;SDS011;47645;45.288;12.038;2022-09-09T13:20:49;4.2;;;1.8;;
61739;SDS011;47645;45.288;12.038;2022-09-09T13:30:58;7.0;;;1.9;;
61739;SDS011;47645;45.288;12.038;2022-09-09T13:40:52;4.2;;;1.4;;
61739;SDS011;47645;45.288;12.038;2022-09-09T13:50:53;3.3;;;1.5;;
61739;SDS011;47645;45.288;12.038;2022-09-09T14:00:54;4.3;;;2.1;;
61739;SDS011;47645;45.288;12.038;2022-09-09T14:10:56;5.1;;;2.0;;
61739;SDS011;47645;45.288;12.038;2022-09-09T14:20:59;8.6;;;1.9;;
61739;SDS011;47645;45.288;12.038;2022-09-09T14:30:59;5.6;;;2.0;;
61739;SDS011;47645;45.288;12.038;2022-09-09T14:41:03;7.7;;;1.9;;
61739;SDS011;47645;45.288;12.038;2022-09-09T14:51:06;6.0;;;1.9;;
61739;SDS011;47645;45.288;12.038;2022-09-09T15:01:04;6.5;;;2.0;;
61739;SDS011;47645;45.288;12.038;2022-09-09T15:11:05;4.5;;;1.7;;
61739;SDS011;47645;45.288;12.038;2022-09-09T15:21:07;4.5;;;1.8;;
61739;SDS011;47645;45.288;12.038;2022-09-09T15:31:10;3.8;;;1.5;;
61739;SDS011;47645;45.288;12.038;2022-09-09T15:41:10;5.0;;;1.5;;
61739;SDS011;47645;45.288;12.038;2022-09-09T15:51:12;7.2;;;2.1;;
61739;SDS011;47645;45.288;12.038;2022-09-09T16:01:13;4.8;;;1.7;;
61739;SDS011;47645;45.288;12.038;2022-09-09T16:11:16;3.7;;;1.7;;
61739;SDS011;47645;45.288;12.038;2022-09-09T16:21:17;4.7;;;1.8;;
61739;SDS011;47645;45.288;12.038;2022-09-09T16:31:18;5.3;;;1.6;;
61739;SDS011;47645;45.288;12.038;2022-09-09T16:41:20;4.2;;;1.6;;
61739;SDS011;47645;45.288;12.038;2022-09-09T16:51:22;5.5;;;1.4;;
61739;SDS011;47645;45.288;12.038;2022-09-09T17:01:23;2.8;;;1.8;;
61739;SDS011;47645;45.288;12.038;2022-09-09T17:11:25;3.9;;;1.4;;
61739;SDS011;47645;45.288;12.038;2022-09-09T17:21:26;3.2;;;1.6;;
61739;SDS011;47645;45.288;12.038;2022-09-09T17:31:28;7.9;;;2.0;;
61739;SDS011;47645;45.288;12.038;2022-09-09T17:41:28;5.2;;;1.8;;
61739;SDS011;47645;45.288;12.038;2022-09-09T17:51:31;5.1;;;1.7;;
61739;SDS011;47645;45.288;12.038;2022-09-09T18:01:31;4.2;;;1.6;;
61739;SDS011;47645;45.288;12.038;2022-09-09T18:11:33;3.7;;;2.2;;
61739;SDS011;47645;45.288;12.038;2022-09-09T18:21:34;3.2;;;1.8;;
61739;SDS011;47645;45.288;12.038;2022-09-09T18:31:37;3.6;;;1.6;;
61739;SDS011;47645;45.288;12.038;2022-09-09T18:41:37;3.2;;;1.9;;
61739;SDS011;47645;45.288;12.038;2022-09-09T18:51:40;3.2;;;1.5;;
61739;SDS011;47645;45.288;12.038;2022-09-09T19:01:39;3.0;;;1.4;;
61739;SDS011;47645;45.288;12.038;2022-09-09T19:11:40;3.6;;;1.6;;
61739;SDS011;47645;45.288;12.038;2022-09-09T19:21:43;3.5;;;1.5;;
61739;SDS011;47645;45.288;12.038;2022-09-09T19:31:43;3.3;;;1.3;;
61739;SDS011;47645;45.288;12.038;2022-09-09T19:41:44;4.6;;;1.7;;
61739;SDS011;47645;45.288;12.038;2022-09-09T19:51:46;6.6;;;2.9;;
61739;SDS011;47645;45.288;12.038;2022-09-09T20:01:47;7.6;;;3.6;;
61739;SDS011;47645;45.288;12.038;2022-09-09T20:11:48;7.0;;;4.4;;
61739;SDS011;47645;45.288;12.038;2022-09-09T20:21:52;7.6;;;3.9;;
61739;SDS011;47645;45.288;12.038;2022-09-09T20:31:50;7.6;;;3.6;;
61739;SDS011;47645;45.288;12.038;2022-09-09T20:41:52;5.4;;;3.6;;
61739;SDS011;47645;45.288;12.038;2022-09-09T20:51:53;5.5;;;2.8;;
61739;SDS011;47645;45.288;12.038;2022-09-09T21:01:55;4.9;;;2.1;;
61739;SDS011;47645;45.288;12.038;2022-09-09T21:11:56;3.0;;;2.0;;
61739;SDS011;47645;45.288;12.038;2022-09-09T21:21:59;2.8;;;1.6;;
61739;SDS011;47645;45.288;12.038;2022-09-09T21:32:01;4.7;;;1.8;;
61739;SDS011;47645;45.288;12.038;2022-09-09T21:42:02;3.1;;;1.6;;
61739;SDS011;47645;45.288;12.038;2022-09-09T21:52:03;3.1;;;1.5;;
61739;SDS011;47645;45.288;12.038;2022-09-09T22:02:02;2.7;;;1.4;;
61739;SDS011;47645;45.288;12.038;2022-09-09T22:12:04;4.2;;;2.0;;
61739;SDS011;47645;45.288;12.038;2022-09-09T22:22:04;3.1;;;1.6;;
61739;SDS011;47645;45.288;12.038;2022-09-09T22:32:06;4.2;;;1.8;;
61739;SDS011;47645;45.288;12.038;2022-09-09T22:42:07;8.8;;;2.2;;
61739;SDS011;47645;45.288;12.038;2022-09-09T22:52:10;3.7;;;1.8;;
61739;SDS011;47645;45.288;12.038;2022-09-09T23:02:09;6.8;;;2.5;;
61739;SDS011;47645;45.288;12.038;2022-09-09T23:12:11;2.9;;;1.4;;
61739;SDS011;47645;45.288;12.038;2022-09-09T23:22:14;4.3;;;2.0;;
61739;SDS011;47645;45.288;12.038;2022-09-09T23:32:15;4.8;;;2.0;;
61739;SDS011;47645;45.288;12.038;2022-09-09T23:42:14;3.4;;;1.9;;
61739;SDS011;47645;45.288;12.038;2022-09-09T23:52:16;2.6;;;1.7;;
